Time;durP1;ratioP1;P1;durP2;ratioP2;P2;SDS_P1;SDS_P2;PMS_P1;PMS_P2;Temp;Humidity;BMP_temperature;BMP_pressure;BME280_temperature;BME280_humidity;BME280_pressure;Samples;Min_cycle;Max_cycle;Signal;HPM_P1;HPM_P2
2021/12/02 00:00:53;;;;;;;4.47;3.28;;;;;;;21.06;34.37;98090.13;5069048;28;20053;-44
2021/12/02 00:03:19;;;;;;;4.22;3.35;;;;;;;21.07;34.37;98088.94;5069572;28;20037;-45
2021/12/02 00:05:44;;;;;;;4.50;3.30;;;;;;;21.08;34.64;98084.97;5069359;28;20469;-44
2021/12/02 00:08:10;;;;;;;5.18;3.50;;;;;;;21.06;34.57;98071.47;5068851;28;20041;-44
2021/12/02 00:10:36;;;;;;;4.85;3.65;;;;;;;21.08;34.55;98080.22;5069066;28;20067;-45
2021/12/02 00:13:03;;;;;;;4.38;3.15;;;;;;;21.08;34.68;98076.63;5069092;28;20040;-58
2021/12/02 00:15:35;;;;;;;4.97;3.47;;;;;;;21.07;34.37;98075.81;5069296;28;20527;-58
2021/12/02 00:23:34;;;;;;;4.82;3.58;;;;;;;21.08;34.71;98057.19;5069111;28;20474;-58
2021/12/02 00:26:03;;;;;;;5.20;3.53;;;;;;;21.07;34.74;98053.59;5068980;28;20060;-58
2021/12/02 00:28:30;;;;;;;4.47;3.35;;;;;;;21.08;34.55;98046.06;5068369;28;20041;-58
2021/12/02 00:31:00;;;;;;;4.30;3.25;;;;;;;21.08;34.81;98043.28;5068835;28;20463;-58
2021/12/02 00:33:29;;;;;;;5.63;3.75;;;;;;;21.09;34.70;98036.50;5068814;28;20118;-44
2021/12/02 00:35:55;;;;;;;4.47;3.58;;;;;;;21.08;34.72;98029.38;5068858;28;20080;-44
2021/12/02 00:38:23;;;;;;;6.10;3.90;;;;;;;21.08;34.60;98030.16;5068467;28;20504;-44
2021/12/02 00:40:49;;;;;;;6.30;4.25;;;;;;;21.09;34.39;98030.94;5068854;28;20052;-49
2021/12/02 00:43:15;;;;;;;5.53;4.20;;;;;;;21.10;34.48;98026.97;5068805;28;20431;-44
2021/12/02 00:45:42;;;;;;;5.55;3.63;;;;;;;21.10;34.65;98024.19;5068790;28;20063;-44
2021/12/02 00:48:09;;;;;;;6.47;3.50;;;;;;;21.09;34.58;98026.19;5068560;28;20044;-45
2021/12/02 00:50:37;;;;;;;4.88;3.47;;;;;;;21.10;34.50;98026.97;5068527;28;20385;-44
2021/12/02 00:53:05;;;;;;;5.18;3.95;;;;;;;21.10;34.80;98030.53;5068746;28;20501;-44
2021/12/02 00:55:32;;;;;;;5.60;3.78;;;;;;;21.09;34.78;98026.19;5068589;28;20051;-44
2021/12/02 00:57:58;;;;;;;4.13;3.15;;;;;;;21.09;34.84;98017.06;5068566;28;20045;-44
2021/12/02 01:00:24;;;;;;;5.75;3.65;;;;;;;21.10;34.71;98015.84;5068957;28;20086;-44
2021/12/02 01:02:50;;;;;;;4.40;3.33;;;;;;;21.09;34.88;98019.84;5071946;28;20153;-44
2021/12/02 01:05:15;;;;;;;4.68;3.30;;;;;;;21.08;34.76;98023.81;5072083;28;20062;-44
2021/12/02 01:07:42;;;;;;;4.65;3.60;;;;;;;21.10;34.85;98022.19;5072310;28;20489;-44
2021/12/02 01:10:09;;;;;;;4.55;3.42;;;;;;;21.08;34.77;98015.47;5071977;28;20560;-45
2021/12/02 01:12:37;;;;;;;5.18;3.80;;;;;;;21.10;34.58;98010.28;5071787;28;20041;-44
2021/12/02 01:15:05;;;;;;;4.70;3.60;;;;;;;21.11;34.64;98020.22;5071987;28;20055;-44
2021/12/02 01:17:31;;;;;;;5.63;3.72;;;;;;;21.11;34.75;98025.75;5071721;28;20086;-44
2021/12/02 01:19:56;;;;;;;5.47;3.97;;;;;;;21.10;34.81;98026.97;5071802;28;20072;-45
2021/12/02 01:22:24;;;;;;;4.47;3.50;;;;;;;21.11;34.71;98014.66;5071806;28;20044;-45
2021/12/02 01:24:50;;;;;;;6.05;4.05;;;;;;;21.10;34.80;98011.06;5071805;28;20071;-45
2021/12/02 01:27:17;;;;;;;6.88;4.40;;;;;;;21.10;34.75;98004.72;5071873;28;20499;-45
2021/12/02 01:29:43;;;;;;;5.40;3.92;;;;;;;21.08;34.70;98010.72;5070892;28;20040;-58
2021/12/02 01:32:11;;;;;;;5.18;4.13;;;;;;;21.08;34.39;98010.72;5071710;28;20397;-58
2021/12/02 01:34:36;;;;;;;5.00;3.65;;;;;;;21.08;34.80;98013.47;5071709;28;20052;-45
2021/12/02 01:37:08;;;;;;;4.95;3.90;;;;;;;21.07;34.85;98014.66;5071539;28;20090;-45
2021/12/02 01:39:35;;;;;;;5.93;4.37;;;;;;;21.09;34.74;98019.84;5071791;28;20139;-46
2021/12/02 01:42:00;;;;;;;5.45;3.97;;;;;;;21.09;34.93;98011.50;5071634;28;20056;-45
2021/12/02 01:44:28;;;;;;;5.20;3.95;;;;;;;21.09;34.73;98017.06;5071345;28;20048;-45
2021/12/02 01:46:57;;;;;;;5.38;3.83;;;;;;;21.08;34.75;98010.72;5071658;28;20044;-45
2021/12/02 01:49:27;;;;;;;4.70;3.72;;;;;;;21.07;34.83;98002.75;5069733;28;20041;-45
2021/12/02 01:51:56;;;;;;;5.35;4.20;;;;;;;21.08;34.83;98007.94;5071482;28;20048;-45
2021/12/02 01:54:25;;;;;;;5.20;3.85;;;;;;;21.09;34.76;98006.72;5071385;28;20067;-45
2021/12/02 01:57:16;;;;;;;6.07;4.30;;;;;;;21.09;34.97;98011.50;5071468;28;20048;-45
2021/12/02 01:59:47;;;;;;;6.07;4.38;;;;;;;21.09;34.81;98008.72;5071579;28;20055;-44
2021/12/02 02:02:16;;;;;;;5.65;4.00;;;;;;;21.11;34.73;98006.31;5071350;28;20045;-44
2021/12/02 02:04:42;;;;;;;5.43;3.88;;;;;;;21.12;34.68;98010.66;5071236;28;20068;-44
2021/12/02 02:07:15;;;;;;;4.75;3.78;;;;;;;21.11;34.47;98011.88;5071111;28;20033;-44
2021/12/02 02:09:41;;;;;;;5.75;4.45;;;;;;;21.13;34.50;98003.91;5071367;28;20487;-45
2021/12/02 02:12:11;;;;;;;5.53;4.03;;;;;;;21.11;34.76;97997.97;5070255;28;20093;-45
2021/12/02 02:14:38;;;;;;;5.93;4.15;;;;;;;21.12;34.73;98000.31;5070864;28;20554;-44
2021/12/02 02:17:13;;;;;;;5.60;4.38;;;;;;;21.12;34.45;97996.75;5071223;28;20140;-59
2021/12/02 02:19:39;;;;;;;5.15;4.00;;;;;;;21.11;34.65;97995.19;5071277;28;20076;-59
2021/12/02 02:22:05;;;;;;;6.03;4.50;;;;;;;21.11;34.75;97984.84;5070968;28;20072;-59
2021/12/02 02:24:31;;;;;;;6.07;4.28;;;;;;;21.12;34.77;97985.63;5070941;28;20428;-59
2021/12/02 02:26:56;;;;;;;5.47;4.30;;;;;;;21.11;34.80;97982.06;5071060;28;20496;-59
2021/12/02 02:29:22;;;;;;;5.82;4.13;;;;;;;21.09;34.84;97978.13;5070731;28;20041;-59
2021/12/02 02:31:49;;;;;;;5.78;4.18;;;;;;;21.07;34.71;97972.97;5070962;28;20044;-59
2021/12/02 02:34:14;;;;;;;6.32;4.30;;;;;;;21.07;34.89;97969.38;5071060;28;20040;-58
2021/12/02 02:36:50;;;;;;;6.03;4.40;;;;;;;21.06;34.87;97971.38;5069350;28;20059;-59
2021/12/02 02:39:16;;;;;;;5.35;4.07;;;;;;;21.05;34.86;97963.47;5070904;28;20497;-59
2021/12/02 02:41:44;;;;;;;5.35;3.90;;;;;;;21.13;34.93;97962.97;5070818;28;20560;-58
2021/12/02 02:44:10;;;;;;;5.78;4.50;;;;;;;21.80;33.50;97954.34;5069786;28;20041;-59
2021/12/02 02:46:41;;;;;;;6.03;4.50;;;;;;;22.29;32.84;97950.13;5070652;28;20047;-59
2021/12/02 02:49:10;;;;;;;5.70;4.40;;;;;;;22.24;32.89;97948.59;5070393;28;20045;-59
2021/12/02 02:51:38;;;;;;;5.53;4.03;;;;;;;22.07;33.09;97949.59;5070516;28;20040;-59
2021/12/02 02:54:08;;;;;;;6.30;4.68;;;;;;;21.88;33.66;97953.84;5070536;28;20100;-59
2021/12/02 02:56:38;;;;;;;5.90;4.22;;;;;;;21.70;33.91;97953.25;5070509;28;20044;-59
2021/12/02 02:59:27;;;;;;;5.55;4.05;;;;;;;21.59;33.67;97952.59;5070385;28;20063;-59
2021/12/02 03:07:11;;;;;;;5.15;4.25;;;;;;;21.31;34.29;97948.94;5070152;28;20408;-58
2021/12/02 03:09:50;;;;;;;6.60;4.70;;;;;;;21.25;34.31;97950.56;5070209;28;20045;-59
2021/12/02 03:17:11;;;;;;;7.30;5.20;;;;;;;21.12;34.56;97930.81;5070199;28;20052;-59
2021/12/02 03:19:41;;;;;;;6.70;4.68;;;;;;;21.12;34.46;97932.81;5070187;28;20513;-59
2021/12/02 03:22:07;;;;;;;6.07;4.60;;;;;;;21.10;34.82;97932.44;5070143;28;20072;-59
2021/12/02 03:24:32;;;;;;;6.13;4.40;;;;;;;21.05;34.59;97919.78;5069366;28;20099;-59
2021/12/02 03:26:58;;;;;;;6.88;4.70;;;;;;;21.05;34.84;97919.78;5070115;28;20595;-59
2021/12/02 03:29:24;;;;;;;6.22;4.65;;;;;;;21.06;34.88;97931.69;5069681;28;20037;-59
2021/12/02 03:31:49;;;;;;;6.97;5.03;;;;;;;21.02;34.89;97931.72;5069888;28;20429;-58
2021/12/02 03:34:15;;;;;;;6.03;4.68;;;;;;;21.03;34.88;97927.75;5069722;28;20417;-58
2021/12/02 03:36:41;;;;;;;5.97;4.90;;;;;;;21.00;34.94;97925.78;5069875;28;20040;-59
2021/12/02 03:39:09;;;;;;;6.32;4.70;;;;;;;21.00;34.85;97927.75;5069770;28;20067;-58
2021/12/02 03:41:37;;;;;;;6.15;4.60;;;;;;;20.99;34.81;97934.53;5069611;28;20078;-58
2021/12/02 03:44:03;;;;;;;5.75;4.55;;;;;;;20.99;34.87;97928.97;5069703;28;20055;-58
2021/12/02 03:46:28;;;;;;;7.20;4.25;;;;;;;20.98;35.07;97928.19;5069698;28;20052;-58
2021/12/02 03:48:55;;;;;;;5.65;4.30;;;;;;;20.99;34.92;97935.31;5069636;28;20036;-58
2021/12/02 03:51:20;;;;;;;6.00;4.20;;;;;;;20.94;35.10;97927.44;5069298;28;20182;-58
2021/12/02 03:53:46;;;;;;;5.45;4.50;;;;;;;20.97;35.10;97939.72;5069552;28;20131;-58
2021/12/02 03:56:12;;;;;;;6.93;4.97;;;;;;;20.97;35.02;97936.94;5069414;28;20044;-58
2021/12/02 03:58:40;;;;;;;6.35;4.68;;;;;;;20.97;35.32;97940.50;5069498;28;20044;-58
2021/12/02 04:01:07;;;;;;;7.78;5.05;;;;;;;20.96;34.98;97940.91;5069384;28;20519;-59
2021/12/02 04:03:34;;;;;;;5.70;4.45;;;;;;;20.97;35.05;97950.84;5069514;28;20044;-45
2021/12/02 04:05:59;;;;;;;6.78;4.85;;;;;;;20.94;35.09;97937.78;5069479;28;20117;-44
2021/12/02 04:08:40;;;;;;;6.13;4.60;;;;;;;20.96;34.90;97941.72;5069379;28;20501;-44
2021/12/02 04:16:27;;;;;;;6.80;5.20;;;;;;;20.95;35.17;97945.69;5069226;28;20534;-45
2021/12/02 04:18:52;;;;;;;6.90;5.03;;;;;;;20.93;35.06;97939.72;5069326;28;20057;-44
2021/12/02 04:21:18;;;;;;;6.43;4.60;;;;;;;20.95;35.03;97944.91;5069162;28;20565;-44
2021/12/02 04:23:43;;;;;;;6.10;4.75;;;;;;;20.95;35.00;97942.13;5068893;28;20428;-44
2021/12/02 04:26:09;;;;;;;6.60;5.18;;;;;;;20.96;35.05;97943.69;5069176;28;20057;-45
2021/12/02 04:28:35;;;;;;;6.53;4.55;;;;;;;20.94;34.96;97935.00;5069238;28;20047;-44
2021/12/02 04:31:00;;;;;;;6.65;4.95;;;;;;;20.97;34.80;97939.72;5068945;28;20462;-44
2021/12/02 04:33:26;;;;;;;6.30;4.88;;;;;;;20.96;34.93;97946.47;5069650;28;20400;-44
2021/12/02 04:35:52;;;;;;;8.43;5.22;;;;;;;20.95;35.08;97942.91;5075438;28;20036;-44
2021/12/02 04:38:19;;;;;;;6.75;4.80;;;;;;;20.93;35.10;97944.50;5075770;28;20045;-58
2021/12/02 04:40:45;;;;;;;6.32;4.47;;;;;;;20.93;34.92;97938.94;5075747;28;20045;-58
2021/12/02 04:43:11;;;;;;;6.25;4.70;;;;;;;20.95;34.88;97937.34;5075668;28;20045;-59
2021/12/02 04:45:36;;;;;;;5.78;4.50;;;;;;;20.95;35.07;97937.34;5075599;28;20040;-58
2021/12/02 04:48:02;;;;;;;5.53;4.25;;;;;;;20.94;34.90;97929.44;5075538;28;20405;-59
2021/12/02 04:50:27;;;;;;;5.40;4.32;;;;;;;20.95;34.93;97931.00;5075535;28;20075;-58
2021/12/02 04:52:56;;;;;;;5.40;3.95;;;;;;;20.95;35.09;97926.22;5075557;28;20071;-58
2021/12/02 04:55:21;;;;;;;4.90;3.83;;;;;;;20.95;35.18;97922.66;5075493;28;20084;-58
2021/12/02 04:57:48;;;;;;;5.53;3.80;;;;;;;20.93;35.14;97923.06;5075318;28;20109;-58
2021/12/02 05:00:14;;;;;;;4.70;3.45;;;;;;;20.94;35.10;97909.97;5075190;28;20123;-58
2021/12/02 05:02:41;;;;;;;4.50;3.45;;;;;;;20.96;35.02;97921.47;5075196;28;20543;-58
2021/12/02 05:05:08;;;;;;;4.20;3.20;;;;;;;20.97;35.16;97925.81;5075034;28;20059;-44
2021/12/02 05:07:34;;;;;;;4.28;3.17;;;;;;;20.98;35.14;97930.16;5075201;28;20609;-44
2021/12/02 05:10:00;;;;;;;4.82;3.40;;;;;;;20.97;35.19;97931.38;5075100;28;20124;-44
2021/12/02 05:12:25;;;;;;;4.43;3.15;;;;;;;20.97;35.29;97929.38;5075162;28;20067;-44
2021/12/02 05:14:51;;;;;;;4.35;3.08;;;;;;;20.99;35.16;97935.31;5075396;28;20048;-44
2021/12/02 05:17:16;;;;;;;3.55;2.55;;;;;;;20.99;34.98;97929.75;5075256;28;20106;-44
2021/12/02 05:19:42;;;;;;;3.40;2.40;;;;;;;20.99;35.07;97920.63;5075103;28;20041;-44
2021/12/02 05:22:08;;;;;;;3.58;2.50;;;;;;;20.98;35.21;97927.41;5075141;28;20457;-44
2021/12/02 05:24:34;;;;;;;3.55;2.55;;;;;;;21.00;35.34;97927.75;5075131;28;20540;-44
2021/12/02 05:26:59;;;;;;;3.33;2.10;;;;;;;20.98;35.09;97925.41;5074989;28;20132;-45
2021/12/02 05:29:25;;;;;;;3.58;2.63;;;;;;;20.99;35.25;97934.53;5074623;28;20106;-44
2021/12/02 05:31:50;;;;;;;3.45;2.55;;;;;;;20.99;35.27;97931.75;5074887;28;20049;-45
2021/12/02 05:34:16;;;;;;;3.10;2.30;;;;;;;20.99;35.14;97937.31;5075001;28;20044;-45
2021/12/02 05:36:41;;;;;;;3.25;2.13;;;;;;;20.99;35.08;97945.66;5075000;28;20072;-45
2021/12/02 05:39:06;;;;;;;3.13;2.38;;;;;;;21.00;35.37;97947.22;5074412;28;20082;-45
2021/12/02 05:41:32;;;;;;;3.45;2.38;;;;;;;20.99;35.42;97940.88;5075241;28;20044;-45
2021/12/02 05:43:59;;;;;;;3.75;2.85;;;;;;;20.99;35.47;97942.88;5074890;28;20087;-45
2021/12/02 05:46:25;;;;;;;3.97;2.90;;;;;;;20.99;35.23;97940.88;5071329;28;20048;-45
2021/12/02 05:48:50;;;;;;;4.47;3.20;;;;;;;20.99;35.32;97931.75;5071475;28;20048;-59
2021/12/02 05:51:16;;;;;;;4.03;2.97;;;;;;;20.98;35.49;97930.97;5071601;28;20049;-59
2021/12/02 05:53:41;;;;;;;4.57;3.38;;;;;;;21.02;35.49;97926.16;5071227;28;20048;-59
2021/12/02 05:56:07;;;;;;;4.03;3.05;;;;;;;21.02;35.28;97920.59;5071399;28;20044;-58
2021/12/02 05:58:32;;;;;;;4.03;3.10;;;;;;;21.04;35.42;97923.75;5071287;28;20049;-59
2021/12/02 06:00:58;;;;;;;3.95;2.97;;;;;;;21.06;35.45;97926.13;5071119;28;20101;-59
2021/12/02 06:03:23;;;;;;;4.50;3.38;;;;;;;21.08;35.18;97924.53;5071196;28;20061;-45
2021/12/02 06:05:49;;;;;;;4.70;3.20;;;;;;;21.08;35.16;97923.75;5070996;28;20060;-45
2021/12/02 06:08:15;;;;;;;4.45;3.10;;;;;;;21.09;35.20;97925.31;5071269;28;20133;-44
2021/12/02 06:10:40;;;;;;;5.50;3.28;;;;;;;21.10;35.42;97916.53;5071261;28;20411;-45
2021/12/02 06:13:06;;;;;;;4.30;3.20;;;;;;;21.09;35.35;97919.75;5070707;28;20040;-45
2021/12/02 06:15:31;;;;;;;4.32;3.05;;;;;;;21.13;35.31;97926.03;5071312;28;20043;-46
2021/12/02 06:17:56;;;;;;;4.35;3.33;;;;;;;21.12;35.35;97930.03;5071185;28;20519;-59
2021/12/02 06:20:22;;;;;;;4.93;3.53;;;;;;;21.14;35.34;97928.41;5071130;28;20102;-59
2021/12/02 06:22:48;;;;;;;9.90;3.45;;;;;;;21.12;35.51;97927.25;5071118;28;20044;-59
2021/12/02 06:27:44;;;;;;;22.20;4.72;;;;;;;21.17;35.49;97926.81;5071220;28;20757;-58
2021/12/02 06:30:12;;;;;;;41.42;6.40;;;;;;;21.17;35.39;97929.59;5070744;28;20048;-59
2021/12/02 06:32:38;;;;;;;27.05;4.50;;;;;;;21.16;35.24;97937.16;5070711;28;20048;-59
2021/12/02 06:35:04;;;;;;;21.52;4.20;;;;;;;21.19;35.35;97932.75;5070952;28;20051;-59
2021/12/02 06:37:29;;;;;;;11.18;3.65;;;;;;;21.19;35.37;97935.53;5070824;28;20044;-59
2021/12/02 06:39:55;;;;;;;21.17;4.15;;;;;;;21.19;35.51;97929.97;5070706;28;20048;-58
2021/12/02 06:42:21;;;;;;;22.05;4.18;;;;;;;21.20;35.31;97930.75;5070970;28;20056;-60
2021/12/02 06:44:46;;;;;;;24.48;3.50;;;;;;;21.19;35.10;97929.97;5071381;28;20128;-59
2021/12/02 06:47:12;;;;;;;15.60;3.65;;;;;;;21.19;35.09;97931.94;5071372;28;20052;-60
2021/12/02 06:49:41;;;;;;;8.80;3.55;;;;;;;21.19;35.21;97929.97;5071025;28;20037;-59
2021/12/02 06:52:11;;;;;;;10.27;3.10;;;;;;;21.17;35.30;97915.69;5070759;28;20048;-59
2021/12/02 06:54:37;;;;;;;7.68;2.78;;;;;;;21.20;35.25;97922.41;5071126;28;20451;-59
2021/12/02 06:57:02;;;;;;;7.32;3.30;;;;;;;21.19;35.16;97929.97;5070257;28;20512;-59
2021/12/02 06:59:28;;;;;;;11.80;2.90;;;;;;;21.19;35.25;97924.41;5070623;28;20095;-59
2021/12/02 07:01:53;;;;;;;5.80;2.40;;;;;;;21.21;35.15;97930.31;5070414;28;20416;-45
2021/12/02 07:04:19;;;;;;;8.35;3.10;;;;;;;21.20;35.42;97925.19;5070150;28;20090;-46
2021/12/02 07:06:44;;;;;;;12.60;2.63;;;;;;;21.21;35.28;97932.31;5069789;28;20110;-45
2021/12/02 07:09:11;;;;;;;11.45;2.38;;;;;;;21.21;35.19;97927.53;5070041;28;20047;-45
2021/12/02 07:11:37;;;;;;;6.43;2.28;;;;;;;21.21;34.99;97933.09;5070049;28;20044;-46
2021/12/02 07:14:09;;;;;;;8.23;2.45;;;;;;;21.25;35.10;97933.09;5070145;28;20048;-45
2021/12/02 07:16:35;;;;;;;8.30;2.20;;;;;;;21.25;34.98;97939.44;5070284;28;20044;-45
2021/12/02 07:19:05;;;;;;;7.82;2.28;;;;;;;21.26;35.26;97943.78;5070083;28;20052;-46
2021/12/02 07:21:31;;;;;;;6.32;2.10;;;;;;;21.25;35.06;97945.00;5070181;28;20052;-59
2021/12/02 07:23:57;;;;;;;6.90;1.98;;;;;;;21.28;35.17;97951.75;5070089;28;20449;-59
2021/12/02 07:26:22;;;;;;;3.72;1.95;;;;;;;21.27;35.12;97958.47;5070174;28;20037;-59
2021/12/02 07:28:48;;;;;;;3.35;2.00;;;;;;;21.28;35.16;97960.09;5069984;28;20053;-45
2021/12/02 07:31:15;;;;;;;2.92;1.75;;;;;;;21.29;35.27;97954.13;5069921;28;20051;-46
2021/12/02 07:33:48;;;;;;;4.85;1.95;;;;;;;21.29;35.10;97956.09;5070143;28;20044;-45
2021/12/02 07:36:14;;;;;;;5.90;1.75;;;;;;;21.29;34.97;97956.09;5069036;28;20129;-45
2021/12/02 07:38:40;;;;;;;4.22;1.67;;;;;;;21.29;35.06;97961.66;5069544;28;20415;-58
2021/12/02 07:41:06;;;;;;;2.90;1.60;;;;;;;21.28;35.15;97971.22;5069810;28;20055;-45
2021/12/02 07:43:38;;;;;;;2.88;1.70;;;;;;;21.27;35.06;97975.16;5069718;28;20080;-45
2021/12/02 07:46:04;;;;;;;3.08;1.42;;;;;;;21.29;35.16;97973.59;5069174;28;20044;-44
2021/12/02 07:48:29;;;;;;;2.95;1.65;;;;;;;21.29;35.21;97984.72;5069435;28;20127;-47
2021/12/02 07:50:59;;;;;;;2.92;1.70;;;;;;;21.30;35.29;97974.38;5063855;28;20337;-44
2021/12/02 07:53:26;;;;;;;2.88;1.80;;;;;;;21.29;35.24;97976.38;5068663;28;20064;-44
2021/12/02 07:55:53;;;;;;;2.80;1.50;;;;;;;21.29;34.94;97981.94;5056946;28;20048;-45
2021/12/02 07:58:21;;;;;;;2.25;1.45;;;;;;;21.27;35.13;97975.94;5068001;28;20071;-45
2021/12/02 08:00:46;;;;;;;2.70;1.60;;;;;;;21.28;34.93;97983.13;5068525;28;20064;-56
2021/12/02 08:03:12;;;;;;;2.50;1.48;;;;;;;21.28;34.87;97974.00;5068713;28;20040;-58
2021/12/02 08:05:39;;;;;;;2.50;1.65;;;;;;;21.29;34.99;97979.16;5066956;28;20041;-58
2021/12/02 08:08:05;;;;;;;2.60;1.60;;;;;;;21.28;35.16;97982.34;5065224;28;20515;-58
2021/12/02 08:10:30;;;;;;;2.50;1.60;;;;;;;21.27;35.38;97973.16;5057920;28;20052;-44
2021/12/02 08:12:58;;;;;;;2.78;1.67;;;;;;;21.27;35.40;97978.72;5066325;28;20044;-44
2021/12/02 08:15:26;;;;;;;2.35;1.60;;;;;;;21.29;35.27;97981.13;5068261;28;20048;-44
2021/12/02 08:17:53;;;;;;;2.53;1.70;;;;;;;21.28;35.06;97974.78;5067000;28;20033;-46
2021/12/02 08:20:20;;;;;;;2.60;1.77;;;;;;;21.29;35.13;97976.38;5066064;28;20048;-45
2021/12/02 08:22:46;;;;;;;4.15;2.20;;;;;;;21.29;35.15;97979.16;5061756;28;20045;-45
2021/12/02 08:25:12;;;;;;;3.80;1.90;;;;;;;21.27;35.24;97973.16;5059344;28;20492;-45
2021/12/02 08:27:40;;;;;;;2.17;1.60;;;;;;;21.28;35.19;97982.34;5062638;28;20044;-45
2021/12/02 08:30:08;;;;;;;3.42;1.80;;;;;;;21.27;35.50;97984.28;5060889;28;20068;-45
2021/12/02 08:32:39;;;;;;;3.35;2.38;;;;;;;21.27;35.27;97987.06;5060819;28;20103;-46
2021/12/02 08:35:05;;;;;;;3.10;2.28;;;;;;;21.26;35.32;97987.50;5062677;28;20528;-45
2021/12/02 08:37:32;;;;;;;2.97;2.00;;;;;;;21.26;35.16;97987.50;5061554;28;20045;-44
2021/12/02 08:40:01;;;;;;;3.13;2.05;;;;;;;21.23;35.53;97986.34;5049976;28;20145;-44
2021/12/02 08:42:28;;;;;;;3.00;2.00;;;;;;;21.24;35.29;97987.91;5061272;28;20487;-44
2021/12/02 08:44:54;;;;;;;2.80;2.00;;;;;;;21.22;35.68;97992.28;5053252;28;20040;-44
2021/12/02 08:47:22;;;;;;;2.90;2.05;;;;;;;21.23;35.51;97994.69;5063031;28;20044;-45
2021/12/02 08:49:52;;;;;;;2.80;2.00;;;;;;;21.24;35.59;97989.91;5057468;28;20508;-47
2021/12/02 08:52:22;;;;;;;3.25;2.33;;;;;;;21.24;35.44;97999.03;5062137;28;20079;-46
2021/12/02 08:54:49;;;;;;;2.80;1.92;;;;;;;21.23;35.42;97996.66;5062194;28;20056;-45
2021/12/02 08:57:17;;;;;;;3.10;1.90;;;;;;;21.22;35.36;97995.06;5061815;28;20045;-44
2021/12/02 08:59:43;;;;;;;2.95;2.08;;;;;;;21.24;35.18;97999.03;5046668;28;20048;-45
2021/12/02 09:02:08;;;;;;;3.42;2.03;;;;;;;21.23;35.59;97996.66;5058114;28;20127;-45
2021/12/02 09:04:34;;;;;;;3.30;1.85;;;;;;;21.25;35.53;97991.47;5063299;28;20441;-58
2021/12/02 09:06:59;;;;;;;3.40;2.28;;;;;;;21.25;35.58;98000.63;5062276;28;20587;-58
2021/12/02 09:09:26;;;;;;;2.83;2.13;;;;;;;21.27;35.54;98000.97;5053189;28;20102;-58
2021/12/02 09:11:54;;;;;;;4.03;2.40;;;;;;;21.23;35.36;97997.47;5059416;28;20056;-58
2021/12/02 09:14:19;;;;;;;3.20;2.30;;;;;;;21.23;35.43;98000.25;5054581;28;20090;-58
2021/12/02 09:16:45;;;;;;;3.75;2.50;;;;;;;21.27;35.24;98005.75;5058985;28;20045;-58
2021/12/02 09:19:10;;;;;;;3.35;2.50;;;;;;;21.26;35.39;98002.19;5058596;28;20489;-58
2021/12/02 09:21:36;;;;;;;3.70;2.60;;;;;;;21.27;35.61;98014.09;5062346;28;20079;-58
2021/12/02 09:24:01;;;;;;;3.33;2.50;;;;;;;21.27;35.67;98012.09;5063554;28;20048;-58
2021/12/02 09:26:27;;;;;;;3.60;2.38;;;;;;;21.27;35.57;98014.88;5061416;28;20519;-58
2021/12/02 09:28:53;;;;;;;2.97;2.00;;;;;;;21.26;35.32;98015.31;5051782;28;20044;-45
2021/12/02 09:31:21;;;;;;;3.47;2.50;;;;;;;21.26;35.44;98016.09;5063630;28;20519;-58
2021/12/02 09:33:47;;;;;;;3.75;2.72;;;;;;;21.24;35.49;98010.16;5061620;28;20060;-58
2021/12/02 09:36:13;;;;;;;3.85;2.45;;;;;;;21.23;35.62;98011.38;5063764;28;20036;-58
2021/12/02 09:38:38;;;;;;;2.97;2.08;;;;;;;21.25;35.85;98013.72;5062689;28;20068;-58
2021/12/02 09:41:05;;;;;;;2.95;2.22;;;;;;;21.24;35.71;98021.28;5058417;28;20064;-58
2021/12/02 09:43:30;;;;;;;3.08;2.08;;;;;;;21.24;35.62;98014.94;5050441;28;20048;-58
2021/12/02 09:45:56;;;;;;;3.97;2.60;;;;;;;21.23;35.53;98019.72;5057989;28;20045;-57
2021/12/02 09:48:21;;;;;;;3.10;2.28;;;;;;;21.26;35.52;98021.66;5063873;28;20053;-57
2021/12/02 09:51:02;;;;;;;3.80;2.78;;;;;;;21.29;35.67;98029.22;5060602;28;20052;-58
2021/12/02 09:53:32;;;;;;;3.70;2.72;;;;;;;21.32;35.60;98033.16;5061939;28;20053;-57
2021/12/02 09:56:10;;;;;;;4.47;2.70;;;;;;;21.32;35.60;98025.59;5063829;28;20123;-58
2021/12/02 09:58:35;;;;;;;4.15;2.78;;;;;;;21.34;35.41;98031.53;5060975;28;20087;-57
2021/12/02 10:01:16;;;;;;;3.78;2.42;;;;;;;21.35;35.55;98037.88;5060246;28;20053;-46
2021/12/02 10:03:45;;;;;;;4.32;2.58;;;;;;;21.32;35.66;98033.94;5059228;28;20516;-45
2021/12/02 10:06:22;;;;;;;4.10;2.97;;;;;;;21.34;35.73;98031.53;5063372;28;20040;-45
2021/12/02 10:08:57;;;;;;;9.05;3.10;;;;;;;21.36;35.79;98034.72;5058494;28;20052;-45
2021/12/02 10:11:34;;;;;;;4.53;3.10;;;;;;;21.33;35.95;98027.19;5063263;28;20044;-44
2021/12/02 10:14:21;;;;;;;5.47;2.67;;;;;;;21.34;35.95;98019.63;5061817;28;20041;-44
2021/12/02 10:16:49;;;;;;;3.70;3.00;;;;;;;21.35;36.23;98010.84;5069285;28;20083;-45
2021/12/02 10:24:24;;;;;;;3.67;2.65;;;;;;;21.34;36.35;97992.59;5058378;28;20086;-45
2021/12/02 10:26:59;;;;;;;4.25;2.92;;;;;;;21.30;36.52;97985.50;5054813;28;20486;-45
2021/12/02 10:29:29;;;;;;;4.07;2.90;;;;;;;21.30;36.36;97983.50;5058765;28;20044;-60
2021/12/02 10:32:14;;;;;;;3.97;2.60;;;;;;;21.29;36.57;97973.59;5060090;28;20056;-59
2021/12/02 10:34:51;;;;;;;3.92;2.92;;;;;;;21.26;36.56;97968.03;5061268;28;20044;-63
2021/12/02 10:37:18;;;;;;;6.07;3.05;;;;;;;21.29;36.76;97961.66;5058638;28;20052;-60
2021/12/02 10:40:14;;;;;;;5.32;3.67;;;;;;;21.29;36.72;97958.88;5060718;28;20564;-59
2021/12/02 10:42:42;;;;;;;6.68;3.30;;;;;;;21.84;36.02;97969.78;5046227;28;20050;-59
2021/12/02 10:45:26;;;;;;;4.07;2.90;;;;;;;22.98;34.40;97951.44;5061170;28;20055;-61
2021/12/02 10:47:53;;;;;;;4.82;3.20;;;;;;;23.32;33.63;97954.00;5060687;28;20045;-60
2021/12/02 10:50:21;;;;;;;4.40;3.20;;;;;;;23.10;34.02;97952.81;5063496;28;20111;-60
2021/12/02 10:52:47;;;;;;;4.53;3.05;;;;;;;22.77;34.41;97943.41;5062642;28;20063;-58
2021/12/02 10:55:18;;;;;;;4.38;3.00;;;;;;;22.49;34.86;97953.78;5064261;28;20495;-62
2021/12/02 10:57:50;;;;;;;4.15;2.97;;;;;;;22.27;35.35;97958.09;5061301;28;20523;-62
2021/12/02 11:00:22;;;;;;;7.85;4.47;;;;;;;22.03;35.70;97953.66;5046381;28;20045;-60
2021/12/02 11:02:51;;;;;;;10.40;6.13;;;;;;;21.78;35.67;97946.38;5062686;28;20048;-63
2021/12/02 11:05:20;;;;;;;11.57;5.47;;;;;;;21.68;35.93;97944.53;5063213;28;20049;-60
2021/12/02 11:08:06;;;;;;;12.32;5.03;;;;;;;21.60;36.14;97940.28;5046926;28;20045;-61
2021/12/02 11:10:33;;;;;;;6.03;4.13;;;;;;;21.53;36.04;97940.34;5059033;28;20052;-61
2021/12/02 11:12:59;;;;;;;7.32;4.50;;;;;;;21.46;36.09;97946.78;5061781;28;20409;-60
2021/12/02 11:15:27;;;;;;;4.88;3.55;;;;;;;21.38;36.40;97936.94;5064137;28;20504;-59
2021/12/02 11:17:57;;;;;;;8.75;3.78;;;;;;;21.34;36.25;97934.19;5060866;28;20037;-59
2021/12/02 11:20:32;;;;;;;7.30;3.47;;;;;;;21.31;36.41;97932.25;5063571;28;20547;-62
2021/12/02 11:23:18;;;;;;;6.72;3.10;;;;;;;21.27;36.37;97934.25;5057330;28;20048;-59
2021/12/02 11:25:49;;;;;;;4.47;3.13;;;;;;;21.28;36.56;97921.16;5060574;28;20045;-59
2021/12/02 11:28:16;;;;;;;4.57;2.80;;;;;;;21.31;36.15;97923.91;5062487;28;20501;-59
2021/12/02 11:30:41;;;;;;;3.92;2.80;;;;;;;21.36;36.47;97931.81;5057712;28;20036;-60
2021/12/02 11:33:09;;;;;;;4.15;3.05;;;;;;;21.40;36.25;97926.19;5059634;28;20044;-59
2021/12/02 11:35:44;;;;;;;4.20;3.00;;;;;;;21.41;36.23;97925.78;5059708;28;20063;-60
2021/12/02 11:38:22;;;;;;;4.22;2.88;;;;;;;21.48;36.05;97929.69;5056547;28;20052;-60
2021/12/02 11:40:50;;;;;;;5.47;2.90;;;;;;;21.51;36.27;97928.84;5057086;28;20397;-57
2021/12/02 11:43:23;;;;;;;4.22;2.80;;;;;;;21.45;36.39;97922.16;5061588;28;20037;-57
2021/12/02 11:45:50;;;;;;;14.20;3.20;;;;;;;21.56;36.38;97929.16;5061548;28;20211;-58
2021/12/02 11:48:28;;;;;;;4.03;2.60;;;;;;;21.60;36.32;97940.28;5053443;28;20029;-56
2021/12/02 11:50:57;;;;;;;4.35;2.55;;;;;;;21.63;36.37;97931.88;5037932;28;20559;-57
2021/12/02 11:53:24;;;;;;;8.30;2.50;;;;;;;21.66;36.38;97930.25;5058670;28;20150;-57
2021/12/02 11:55:58;;;;;;;6.50;2.60;;;;;;;21.68;36.52;97927.84;5056013;28;20037;-58
2021/12/02 11:58:25;;;;;;;6.90;3.33;;;;;;;21.69;36.28;97929.41;5058460;28;20049;-58
2021/12/02 12:00:52;;;;;;;4.65;2.30;;;;;;;21.72;36.63;97928.59;5053943;28;20039;-57
2021/12/02 12:03:23;;;;;;;3.58;2.65;;;;;;;21.73;36.49;97924.63;5057952;28;20519;-57
2021/12/02 12:06:08;;;;;;;4.85;3.05;;;;;;;21.75;36.82;97921.41;5051767;28;20064;-58